CheckWX is a tool to help pilots better visualize weather data.  It is not intended as a substitute for an official pre-flight weather briefing.

00:51:28 UTC

LFLX METAR
Châteauroux-Déols "Marcel Dassault" Airport
Châteauroux/Déols, France
Current

21 mins ago

LFLX 150030Z AUTO 19003KT CAVOK 04/04 Q0997 TEMPO 3000 BR BKN003
Observed
Nov-15 @ 00:30 UTC
Wind
  • 190° at 3 KTS
Visibility
10,000+ meters
Flight Rules
VFR
Cloud Levels
  • Clear skies
Temperature
C / 39°F
Dewpoint
C / 39°F
Humidity
100%
Altimeter
29.44" Hg
Pressure
996.92 hPa
Previous

51 mins ago

LFLX 150000Z AUTO 16004KT 9999 BKN040 BKN050 OVC130 04/04 Q0997 TEMPO 3000 BR BKN003
Observed
Nov-15 @ 00:00 UTC
Wind
  • 160° at 4 KTS
Visibility
10,000+ meters
Flight Rules
VFR
Cloud Levels
  • Broken at 4,000' AGL
  • Broken at 5,000' AGL
  • Overcast at 13,000' AGL
Temperature
C / 39°F
Dewpoint
C / 39°F
Humidity
100%
Altimeter
29.44" Hg
Pressure
996.92 hPa
Previous

1 hour ago

LFLX 142330Z AUTO 12003KT 9999 FEW029 OVC038 04/04 Q0997 TEMPO 3000 BR BKN003
Observed
Nov-14 @ 23:30 UTC
Wind
  • 120° at 3 KTS
Visibility
10,000+ meters
Flight Rules
VFR
Cloud Levels
  • Few at 2,900' AGL
  • Overcast at 3,800' AGL
Temperature
C / 39°F
Dewpoint
C / 39°F
Humidity
100%
Altimeter
29.44" Hg
Pressure
996.92 hPa